Time;durP1;ratioP1;P1;durP2;ratioP2;P2;SDS_P1;SDS_P2;PMS_P1;PMS_P2;Temp;Humidity;BMP_temperature;BMP_pressure;BME280_temperature;BME280_humidity;BME280_pressure;Samples;Min_cycle;Max_cycle;Signal;HPM_P1;HPM_P2
2023/05/16 00:00:34;;;;;;;16.10;9.90;;;;;9.50;95873.00;;;;8312579;28;20261;-68
2023/05/16 00:04:37;;;;;;;18.17;11.33;;;;;9.40;95862.00;;;;8305671;28;20229;-69
2023/05/16 00:08:45;;;;;;;18.45;10.57;;;;;9.50;95868.00;;;;8312697;28;20230;-67
2023/05/16 00:12:50;;;;;;;16.13;10.52;;;;;9.50;95866.00;;;;8319839;28;20226;-69
2023/05/16 00:16:54;;;;;;;15.55;9.52;;;;;9.60;95867.00;;;;8309716;28;20206;-68
2023/05/16 00:20:59;;;;;;;17.90;9.55;;;;;9.50;95863.00;;;;8312231;28;20200;-69
2023/05/16 00:25:04;;;;;;;14.43;9.40;;;;;9.50;95871.00;;;;8303710;28;20608;-68
2023/05/16 00:29:07;;;;;;;18.23;10.37;;;;;9.40;95864.00;;;;8312962;28;20205;-68
2023/05/16 00:33:15;;;;;;;15.33;9.30;;;;;9.30;95866.00;;;;8304218;28;20283;-67
2023/05/16 00:37:18;;;;;;;13.67;9.47;;;;;9.20;95872.00;;;;8316767;28;20205;-67
2023/05/16 00:41:25;;;;;;;17.37;10.00;;;;;9.20;95871.00;;;;8305294;28;20240;-69
2023/05/16 00:45:28;;;;;;;19.40;10.47;;;;;9.20;95868.00;;;;8297227;28;20198;-69
2023/05/16 00:49:31;;;;;;;15.25;8.98;;;;;9.10;95865.00;;;;8310797;28;20261;-68
2023/05/16 00:53:38;;;;;;;16.43;9.73;;;;;9.00;95873.00;;;;8317564;28;20233;-67
2023/05/16 00:57:43;;;;;;;15.30;9.33;;;;;9.00;95868.00;;;;8308712;28;20794;-69
2023/05/16 01:01:47;;;;;;;20.00;10.40;;;;;8.80;95866.00;;;;8305401;28;20222;-65
2023/05/16 01:05:52;;;;;;;17.43;10.63;;;;;8.80;95871.00;;;;8309995;28;20645;-67
2023/05/16 01:09:58;;;;;;;17.73;10.30;;;;;8.80;95859.00;;;;8315157;28;20560;-68
2023/05/16 01:14:19;;;;;;;18.10;10.70;;;;;8.70;95859.00;;;;8312113;28;20225;-66
2023/05/16 01:18:30;;;;;;;18.50;10.03;;;;;8.70;95855.00;;;;8300317;28;20240;-68
2023/05/16 01:22:46;;;;;;;13.40;9.00;;;;;8.60;95846.00;;;;8310047;28;20588;-69
2023/05/16 01:26:52;;;;;;;16.03;9.93;;;;;8.60;95844.00;;;;8303015;28;20201;-67
2023/05/16 01:30:59;;;;;;;21.37;12.67;;;;;8.60;95849.00;;;;8304562;28;20240;-68
2023/05/16 01:35:02;;;;;;;18.30;10.88;;;;;8.70;95849.00;;;;8301518;28;20230;-68
2023/05/16 01:39:15;;;;;;;19.40;10.57;;;;;8.70;95846.00;;;;8300995;28;20198;-67
2023/05/16 01:43:40;;;;;;;16.77;9.87;;;;;8.70;95844.00;;;;8298848;28;21015;-67
2023/05/16 01:47:48;;;;;;;20.40;11.52;;;;;8.80;95843.00;;;;8306142;28;22087;-68
2023/05/16 01:51:56;;;;;;;21.47;11.90;;;;;8.90;95845.00;;;;8300970;28;20229;-68
2023/05/16 01:56:02;;;;;;;23.47;12.57;;;;;9.00;95841.00;;;;8305304;28;20226;-67
2023/05/16 02:00:12;;;;;;;20.53;11.10;;;;;9.10;95844.00;;;;8324897;28;20321;-68
2023/05/16 02:04:29;;;;;;;23.90;11.70;;;;;9.10;95839.00;;;;8313343;28;20233;-66
2023/05/16 02:08:37;;;;;;;19.38;11.32;;;;;9.20;95844.00;;;;8307835;28;20659;-67
2023/05/16 02:12:43;;;;;;;22.77;12.40;;;;;9.30;95844.00;;;;8309060;28;20969;-68
2023/05/16 02:16:48;;;;;;;19.07;11.47;;;;;9.40;95839.00;;;;8306207;28;20221;-69
2023/05/16 02:20:51;;;;;;;23.07;11.97;;;;;9.50;95844.00;;;;8307112;28;20256;-68
2023/05/16 02:24:55;;;;;;;31.03;11.47;;;;;9.60;95834.00;;;;8310527;28;20193;-69
2023/05/16 02:28:59;;;;;;;21.55;11.73;;;;;9.60;95831.00;;;;8304465;28;20202;-68
2023/05/16 02:33:08;;;;;;;20.13;11.57;;;;;9.70;95833.00;;;;8302567;28;20261;-67
2023/05/16 02:37:14;;;;;;;17.70;11.13;;;;;9.70;95827.00;;;;8310732;28;20228;-68
2023/05/16 02:41:21;;;;;;;22.00;11.88;;;;;9.80;95838.00;;;;8306283;28;20260;-68
2023/05/16 02:45:24;;;;;;;19.15;11.38;;;;;9.80;95827.00;;;;8300522;28;20241;-66
2023/05/16 02:49:29;;;;;;;22.23;11.55;;;;;9.90;95829.00;;;;8304659;28;20206;-67
2023/05/16 02:53:33;;;;;;;21.48;11.88;;;;;9.90;95837.00;;;;8312405;28;20245;-67
2023/05/16 02:57:38;;;;;;;19.15;11.10;;;;;9.90;95848.00;;;;8307407;28;20201;-68
2023/05/16 03:01:45;;;;;;;18.30;11.23;;;;;9.90;95839.00;;;;8306413;22;20325;-69
2023/05/16 03:05:51;;;;;;;20.25;11.63;;;;;10.00;95857.00;;;;8215573;28;20207;-68
2023/05/16 03:09:54;;;;;;;23.40;11.50;;;;;10.00;95862.00;;;;8221816;28;20557;-67
2023/05/16 03:13:58;;;;;;;22.65;10.75;;;;;10.00;95855.00;;;;8223248;28;20704;-66
2023/05/16 03:18:06;;;;;;;21.33;11.80;;;;;9.90;95844.00;;;;8230418;28;20773;-68
2023/05/16 03:22:13;;;;;;;19.27;10.85;;;;;9.90;95851.00;;;;8226686;28;20266;-68
2023/05/16 03:26:16;;;;;;;19.77;10.55;;;;;9.90;95857.00;;;;8230542;28;20222;-67
2023/05/16 03:30:25;;;;;;;18.08;10.18;;;;;9.90;95870.00;;;;8226599;28;20246;-68
2023/05/16 03:34:28;;;;;;;21.98;10.18;;;;;9.90;95875.00;;;;8234328;28;20222;-68
2023/05/16 03:38:34;;;;;;;19.88;11.10;;;;;9.90;95881.00;;;;8229085;28;20204;-68
2023/05/16 03:42:41;;;;;;;23.63;11.20;;;;;9.90;95880.00;;;;8224267;28;20207;-68
2023/05/16 03:46:46;;;;;;;20.25;11.07;;;;;9.90;95877.00;;;;8220129;28;20203;-68
2023/05/16 03:50:50;;;;;;;21.43;11.73;;;;;10.00;95880.00;;;;8227366;28;20200;-68
2023/05/16 03:54:57;;;;;;;19.63;11.27;;;;;10.00;95886.00;;;;8228231;28;20227;-68
2023/05/16 03:59:00;;;;;;;19.40;10.87;;;;;10.10;95880.00;;;;8229565;28;20218;-67
2023/05/16 04:03:06;;;;;;;24.33;11.55;;;;;10.10;95882.00;;;;8223979;28;21112;-68
2023/05/16 04:07:09;;;;;;;21.90;11.48;;;;;10.10;95880.00;;;;8209873;28;20686;-68
2023/05/16 04:11:14;;;;;;;24.27;12.98;;;;;10.20;95882.00;;;;8216564;28;20262;-66
2023/05/16 04:15:17;;;;;;;21.67;12.52;;;;;10.30;95887.00;;;;8216482;28;20219;-67
2023/05/16 04:19:20;;;;;;;21.40;12.43;;;;;10.50;95891.00;;;;8214437;28;20263;-66
2023/05/16 04:23:23;;;;;;;18.60;11.73;;;;;10.60;95894.00;;;;8217763;28;20662;-69
2023/05/16 04:27:29;;;;;;;22.03;13.90;;;;;10.70;95891.00;;;;8213390;28;20255;-66
2023/05/16 04:31:35;;;;;;;29.58;13.98;;;;;10.80;95891.00;;;;8215597;28;20274;-67
2023/05/16 04:35:39;;;;;;;21.48;13.30;;;;;10.90;95907.00;;;;8213423;28;20262;-66
2023/05/16 04:39:46;;;;;;;21.33;13.02;;;;;11.10;95894.00;;;;8198606;28;20235;-68
2023/05/16 04:43:51;;;;;;;26.67;12.95;;;;;11.30;95901.00;;;;8210038;28;20215;-67
2023/05/16 04:47:55;;;;;;;18.60;12.00;;;;;11.40;95900.00;;;;8209099;28;20256;-67
2023/05/16 04:51:59;;;;;;;21.67;11.68;;;;;11.40;95893.00;;;;8205586;28;20213;-67
2023/05/16 04:56:04;;;;;;;17.48;11.65;;;;;11.50;95887.00;;;;8210833;28;20282;-66
2023/05/16 05:00:16;;;;;;;16.88;11.15;;;;;11.60;95889.00;;;;8211883;28;20201;-66
2023/05/16 05:04:19;;;;;;;12.88;10.57;;;;;11.80;95893.00;;;;8212068;28;20263;-67
2023/05/16 05:08:24;;;;;;;17.77;11.18;;;;;11.90;95889.00;;;;8209536;28;20210;-66
2023/05/16 05:12:30;;;;;;;14.50;10.45;;;;;12.00;95887.00;;;;8217198;28;20205;-67
2023/05/16 05:16:36;;;;;;;14.25;11.10;;;;;12.10;95891.00;;;;8207438;28;20221;-67
2023/05/16 05:20:39;;;;;;;15.73;11.02;;;;;12.20;95887.00;;;;8213966;28;20213;-67
2023/05/16 05:24:43;;;;;;;19.70;11.80;;;;;12.50;95902.00;;;;8209672;28;20207;-68
2023/05/16 05:28:46;;;;;;;18.67;11.65;;;;;12.80;95911.00;;;;8207015;28;20729;-69
2023/05/16 05:33:09;;;;;;;16.40;10.82;;;;;13.00;95907.00;;;;8219028;28;20194;-67
2023/05/16 05:37:12;;;;;;;15.90;10.45;;;;;13.20;95909.00;;;;8211608;28;20242;-68
2023/05/16 05:41:15;;;;;;;14.07;10.50;;;;;13.40;95902.00;;;;8206222;28;20265;-69
2023/05/16 05:45:19;;;;;;;14.10;10.10;;;;;13.70;95903.00;;;;8211734;28;20286;-69
2023/05/16 05:49:25;;;;;;;13.55;10.63;;;;;14.10;95894.00;;;;8208795;28;20214;-69
2023/05/16 05:53:28;;;;;;;13.60;10.50;;;;;14.30;95888.00;;;;8202860;28;20196;-68
2023/05/16 05:57:31;;;;;;;13.10;10.63;;;;;14.70;95896.00;;;;8208292;28;20219;-69
2023/05/16 06:01:34;;;;;;;12.93;10.30;;;;;14.90;95887.00;;;;8214915;28;20254;-69
2023/05/16 06:05:42;;;;;;;12.80;9.70;;;;;15.00;95886.00;;;;8205627;28;20747;-69
2023/05/16 06:09:45;;;;;;;13.57;8.25;;;;;15.30;95898.00;;;;8204505;28;21778;-73
2023/05/16 06:13:48;;;;;;;13.23;8.32;;;;;15.40;95892.00;;;;8202471;28;20642;-68
2023/05/16 06:17:52;;;;;;;16.08;8.60;;;;;15.30;95890.00;;;;8208953;28;20321;-68
2023/05/16 06:21:59;;;;;;;12.85;8.02;;;;;15.40;95882.00;;;;8199914;28;20237;-69
2023/05/16 06:26:04;;;;;;;12.38;8.38;;;;;15.60;95889.00;;;;8209052;28;20200;-69
2023/05/16 06:30:11;;;;;;;12.10;8.32;;;;;16.00;95886.00;;;;8207490;28;20622;-68
2023/05/16 06:34:14;;;;;;;12.20;8.70;;;;;16.40;95889.00;;;;8207866;28;20913;-69
2023/05/16 06:38:19;;;;;;;12.52;7.22;;;;;17.00;95894.00;;;;8210292;28;20402;-68
2023/05/16 06:42:22;;;;;;;12.15;8.38;;;;;17.20;95894.00;;;;8215536;28;20258;-69
2023/05/16 06:46:26;;;;;;;12.05;8.90;;;;;17.40;95896.00;;;;8205568;28;20206;-71
2023/05/16 06:50:30;;;;;;;13.18;8.25;;;;;17.40;95903.00;;;;8200524;28;20203;-69
2023/05/16 06:54:35;;;;;;;10.00;8.02;;;;;17.50;95896.00;;;;8213108;28;20419;-68
2023/05/16 06:58:42;;;;;;;16.45;8.52;;;;;17.90;95903.00;;;;8213497;28;20227;-70
2023/05/16 07:02:45;;;;;;;10.10;8.10;;;;;17.30;95907.00;;;;8210105;28;20313;-71
2023/05/16 07:06:51;;;;;;;10.70;8.82;;;;;16.90;95907.00;;;;8211959;28;20231;-70
2023/05/16 07:10:56;;;;;;;15.35;7.43;;;;;17.00;95908.00;;;;8222191;28;20743;-68
2023/05/16 07:15:00;;;;;;;13.88;8.85;;;;;17.20;95920.00;;;;8212378;28;20663;-70
2023/05/16 07:19:04;;;;;;;11.40;7.90;;;;;17.50;95909.00;;;;8213466;28;20699;-70
2023/05/16 07:23:07;;;;;;;10.10;8.75;;;;;17.70;95916.00;;;;8213082;28;20206;-70
2023/05/16 07:27:14;;;;;;;11.40;8.65;;;;;17.60;95916.00;;;;8214061;28;20899;-70
2023/05/16 07:31:17;;;;;;;11.60;8.05;;;;;17.50;95918.00;;;;8210591;28;20203;-70
2023/05/16 07:35:21;;;;;;;12.63;9.07;;;;;17.50;95931.00;;;;8209239;28;20235;-67
2023/05/16 07:39:24;;;;;;;15.40;9.48;;;;;17.60;95929.00;;;;8209354;28;20859;-72
2023/05/16 07:43:28;;;;;;;13.25;8.75;;;;;17.60;95935.00;;;;8197059;28;20209;-69
2023/05/16 07:47:32;;;;;;;14.70;9.63;;;;;17.80;95935.00;;;;8209486;28;20191;-71
2023/05/16 07:51:35;;;;;;;9.18;8.13;;;;;17.90;95934.00;;;;8217177;28;20200;-69
2023/05/16 07:55:41;;;;;;;10.57;8.95;;;;;17.80;95924.00;;;;8223719;28;20692;-70
2023/05/16 07:59:45;;;;;;;13.98;9.35;;;;;17.90;95929.00;;;;8217545;28;20661;-71
2023/05/16 08:03:49;;;;;;;12.85;8.63;;;;;18.00;95928.00;;;;8223058;28;20305;-71
2023/05/16 08:07:53;;;;;;;14.18;8.90;;;;;17.90;95925.00;;;;8215384;28;20204;-71
2023/05/16 08:11:56;;;;;;;14.25;9.50;;;;;17.80;95926.00;;;;8216839;28;20866;-72
2023/05/16 08:16:01;;;;;;;10.45;9.02;;;;;17.80;95933.00;;;;8219516;28;20310;-67
2023/05/16 08:20:08;;;;;;;13.90;9.27;;;;;17.80;95937.00;;;;8211049;28;20195;-70
2023/05/16 08:24:11;;;;;;;12.52;8.73;;;;;18.00;95924.00;;;;8214927;28;20492;-71
2023/05/16 08:28:15;;;;;;;13.18;8.95;;;;;18.20;95928.00;;;;8211280;28;20294;-70
2023/05/16 08:32:21;;;;;;;13.52;9.02;;;;;18.50;95930.00;;;;8212775;28;20303;-69
2023/05/16 08:36:24;;;;;;;13.32;9.05;;;;;18.80;95940.00;;;;8211071;28;20588;-70
2023/05/16 08:40:30;;;;;;;15.63;9.13;;;;;18.90;95938.00;;;;8208058;28;20211;-71
2023/05/16 08:44:36;;;;;;;9.57;8.43;;;;;19.10;95941.00;;;;8212880;28;20230;-69
2023/05/16 08:48:45;;;;;;;10.65;8.57;;;;;19.30;95944.00;;;;8213064;28;20306;-70
2023/05/16 08:52:56;;;;;;;12.52;8.40;;;;;19.80;95938.00;;;;8219642;28;20196;-70
2023/05/16 08:57:02;;;;;;;13.73;9.18;;;;;20.30;95931.00;;;;8213138;28;20339;-69
2023/05/16 09:01:08;;;;;;;13.57;8.82;;;;;20.60;95946.00;;;;8212594;28;20234;-71
2023/05/16 09:05:17;;;;;;;14.95;9.13;;;;;21.00;95944.00;;;;8217327;28;20202;-71
2023/05/16 09:09:24;;;;;;;11.02;8.05;;;;;21.30;95943.00;;;;8213089;28;20223;-71
2023/05/16 09:13:28;;;;;;;14.82;8.45;;;;;21.50;95934.00;;;;8211642;28;20206;-69
2023/05/16 09:17:37;;;;;;;10.00;8.52;;;;;21.60;95930.00;;;;8216722;28;20235;-71
2023/05/16 09:21:44;;;;;;;10.13;7.68;;;;;21.80;95930.00;;;;8212746;28;20230;-71
2023/05/16 09:25:50;;;;;;;16.40;8.10;;;;;22.20;95925.00;;;;8217832;28;20893;-71
2023/05/16 09:29:57;;;;;;;10.45;8.00;;;;;22.20;95924.00;;;;8216040;28;20218;-69
2023/05/16 09:34:02;;;;;;;11.48;8.07;;;;;21.40;95934.00;;;;8213829;28;20319;-71
2023/05/16 09:38:14;;;;;;;8.20;7.30;;;;;21.00;95938.00;;;;8214242;28;21006;-72
2023/05/16 09:42:22;;;;;;;12.35;7.63;;;;;20.60;95940.00;;;;8218034;28;20294;-69
2023/05/16 09:46:31;;;;;;;9.82;7.22;;;;;20.80;95931.00;;;;8207411;28;20310;-71
2023/05/16 09:50:35;;;;;;;9.73;7.10;;;;;21.10;95938.00;;;;8215083;28;20219;-70
2023/05/16 09:54:40;;;;;;;8.88;7.20;;;;;21.00;95930.00;;;;8214892;28;20585;-69
2023/05/16 09:58:46;;;;;;;7.78;6.75;;;;;21.10;95926.00;;;;8217271;28;20836;-74
2023/05/16 10:02:50;;;;;;;11.55;7.07;;;;;21.10;95923.00;;;;8204019;28;20246;-71
2023/05/16 10:06:56;;;;;;;10.15;7.13;;;;;21.40;95914.00;;;;8209819;28;20240;-73
2023/05/16 10:11:01;;;;;;;16.08;7.10;;;;;22.10;95916.00;;;;8217990;28;20282;-71
2023/05/16 10:15:06;;;;;;;10.15;7.40;;;;;22.90;95916.00;;;;8214431;28;20788;-68
2023/05/16 10:19:11;;;;;;;11.27;6.90;;;;;23.40;95922.00;;;;8213463;28;20226;-71
2023/05/16 10:23:17;;;;;;;8.25;7.10;;;;;23.60;95918.00;;;;8197650;28;20215;-73
2023/05/16 10:27:22;;;;;;;8.50;6.95;;;;;23.50;95909.00;;;;8203832;28;20222;-73
2023/05/16 10:31:26;;;;;;;8.60;7.43;;;;;22.60;95926.00;;;;8206958;28;20720;-71
2023/05/16 10:35:30;;;;;;;10.40;7.38;;;;;21.90;95911.00;;;;8198918;28;21100;-71
2023/05/16 10:39:33;;;;;;;10.48;7.18;;;;;21.40;95920.00;;;;8212696;28;20745;-72
2023/05/16 10:43:40;;;;;;;10.23;6.97;;;;;20.90;95922.00;;;;8203755;28;20287;-72
2023/05/16 10:47:53;;;;;;;13.88;7.68;;;;;20.40;95912.00;;;;8205567;28;20215;-72
2023/05/16 10:52:08;;;;;;;10.07;7.38;;;;;20.30;95912.00;;;;8210874;28;20211;-71
2023/05/16 10:56:14;;;;;;;9.40;6.70;;;;;20.30;95915.00;;;;8208394;28;20207;-71
2023/05/16 11:00:23;;;;;;;12.88;7.47;;;;;20.20;95911.00;;;;8206351;28;20227;-72
2023/05/16 11:04:46;;;;;;;15.25;7.32;;;;;20.10;95910.00;;;;8214279;28;20301;-72
2023/05/16 11:09:04;;;;;;;12.48;8.00;;;;;20.00;95909.00;;;;8211931;28;20207;-71
2023/05/16 11:13:08;;;;;;;11.32;7.20;;;;;20.00;95918.00;;;;8206436;28;20231;-71
2023/05/16 11:17:16;;;;;;;8.43;7.53;;;;;20.00;95915.00;;;;8206968;28;20227;-69
2023/05/16 11:21:20;;;;;;;13.25;6.57;;;;;19.90;95919.00;;;;8209940;28;20298;-73
2023/05/16 11:25:39;;;;;;;10.15;6.78;;;;;19.80;95918.00;;;;8215380;28;20223;-72
2023/05/16 11:29:43;;;;;;;6.95;6.18;;;;;19.70;95916.00;;;;8205294;28;20653;-71
2023/05/16 11:33:49;;;;;;;10.90;6.47;;;;;19.60;95915.00;;;;8211619;28;20286;-70
2023/05/16 11:37:52;;;;;;;9.00;6.07;;;;;19.60;95910.00;;;;8212518;28;20652;-70
2023/05/16 11:41:56;;;;;;;7.28;6.28;;;;;19.40;95915.00;;;;8215809;28;20303;-69
2023/05/16 11:46:03;;;;;;;8.35;6.70;;;;;19.30;95920.00;;;;8215861;28;20200;-71
2023/05/16 11:50:12;;;;;;;7.20;6.50;;;;;19.20;95925.00;;;;8213754;28;20202;-71
2023/05/16 11:54:19;;;;;;;6.28;5.53;;;;;19.10;95926.00;;;;8215084;28;20223;-71
2023/05/16 11:58:22;;;;;;;13.68;6.05;;;;;19.10;95927.00;;;;8214440;28;20238;-72
2023/05/16 12:02:28;;;;;;;9.35;6.22;;;;;19.20;95932.00;;;;8214717;28;20263;-71
2023/05/16 12:06:33;;;;;;;9.65;6.70;;;;;19.10;95934.00;;;;8214089;28;20287;-68
2023/05/16 12:10:37;;;;;;;11.52;5.85;;;;;19.10;95941.00;;;;8216775;28;20234;-72
2023/05/16 12:14:40;;;;;;;8.02;6.20;;;;;19.20;95943.00;;;;8217907;28;20632;-71
2023/05/16 12:18:44;;;;;;;9.23;7.97;;;;;19.20;95950.00;;;;8221250;28;20227;-71
2023/05/16 12:22:49;;;;;;;13.60;8.48;;;;;19.10;95957.00;;;;8216599;28;20359;-72
2023/05/16 12:26:53;;;;;;;12.60;9.00;;;;;18.90;95958.00;;;;8211205;28;20290;-70
2023/05/16 12:30:56;;;;;;;12.15;8.10;;;;;18.70;95962.00;;;;8210195;28;20286;-72
2023/05/16 12:35:02;;;;;;;12.13;9.10;;;;;18.30;95981.00;;;;8206469;28;20634;-74
2023/05/16 12:39:06;;;;;;;10.10;7.82;;;;;17.60;95994.00;;;;8220288;28;20324;-69
2023/05/16 12:43:16;;;;;;;16.50;9.10;;;;;16.10;95992.00;;;;8214605;28;20281;-61
2023/05/16 12:47:27;;;;;;;18.25;12.43;;;;;15.00;96001.00;;;;8219701;28;20207;-61
2023/05/16 12:51:33;;;;;;;16.13;11.25;;;;;14.60;95998.00;;;;8212955;28;20310;-62
2023/05/16 12:55:39;;;;;;;28.85;12.23;;;;;14.30;95995.00;;;;8216443;28;20637;-62
2023/05/16 12:59:42;;;;;;;24.70;14.50;;;;;14.30;95986.00;;;;8209931;28;20233;-62
2023/05/16 13:03:48;;;;;;;21.83;13.10;;;;;14.30;95980.00;;;;8216555;28;20224;-61
2023/05/16 13:07:55;;;;;;;20.05;13.57;;;;;14.20;95981.00;;;;8213817;28;20540;-62
2023/05/16 13:12:00;;;;;;;24.25;13.40;;;;;14.20;95979.00;;;;8212130;28;20326;-61
2023/05/16 13:16:03;;;;;;;22.77;14.20;;;;;14.20;95982.00;;;;8209221;28;20204;-61
2023/05/16 13:20:08;;;;;;;22.25;13.40;;;;;14.10;95984.00;;;;8212315;28;20290;-63
2023/05/16 13:24:13;;;;;;;20.98;12.00;;;;;14.10;95982.00;;;;8210909;28;20288;-64
2023/05/16 13:28:18;;;;;;;22.45;13.32;;;;;14.10;95994.00;;;;8208203;28;20303;-64
2023/05/16 13:32:24;;;;;;;24.80;13.18;;;;;14.10;95983.00;;;;8216504;28;20218;-64
2023/05/16 13:36:27;;;;;;;22.58;13.15;;;;;14.10;95996.00;;;;8214019;28;20517;-63
2023/05/16 13:40:37;;;;;;;21.02;12.10;;;;;14.00;95998.00;;;;8211716;28;20231;-63
2023/05/16 13:44:43;;;;;;;18.05;12.18;;;;;14.00;95997.00;;;;8210384;28;20627;-63
2023/05/16 13:48:51;;;;;;;22.25;12.93;;;;;14.00;95998.00;;;;8218433;28;20235;-64
2023/05/16 13:52:55;;;;;;;19.85;12.40;;;;;13.90;95992.00;;;;8215385;28;20204;-64
2023/05/16 13:56:58;;;;;;;16.13;9.85;;;;;14.00;96000.00;;;;8216624;28;20294;-66
2023/05/16 14:01:05;;;;;;;19.13;11.30;;;;;14.10;95999.00;;;;8218784;28;20227;-67
2023/05/16 14:05:11;;;;;;;19.02;10.88;;;;;14.30;95998.00;;;;8215086;28;20187;-68
2023/05/16 14:09:15;;;;;;;22.23;10.98;;;;;14.40;95992.00;;;;8219309;28;20395;-70
2023/05/16 14:13:18;;;;;;;16.00;9.02;;;;;14.60;96006.00;;;;8218442;28;20211;-71
2023/05/16 14:17:23;;;;;;;12.43;9.73;;;;;14.70;96004.00;;;;8214208;28;20652;-65
2023/05/16 14:21:31;;;;;;;17.45;9.65;;;;;14.80;96007.00;;;;8210625;28;20326;-70
2023/05/16 14:25:35;;;;;;;14.32;9.32;;;;;14.90;96006.00;;;;8224463;28;20206;-71
2023/05/16 14:29:38;;;;;;;14.88;8.55;;;;;15.00;96005.00;;;;8219651;28;20303;-68
2023/05/16 14:33:45;;;;;;;11.70;8.15;;;;;14.90;96000.00;;;;8221077;28;20209;-69
2023/05/16 14:37:50;;;;;;;11.65;8.45;;;;;14.90;96015.00;;;;8214185;28;20208;-67
2023/05/16 14:41:53;;;;;;;11.32;8.18;;;;;14.90;96016.00;;;;8216759;28;20848;-67
2023/05/16 14:45:57;;;;;;;18.08;10.50;;;;;14.90;96018.00;;;;8220419;28;20202;-68
2023/05/16 14:50:02;;;;;;;19.52;11.63;;;;;14.90;96018.00;;;;8215156;28;20610;-69
2023/05/16 14:54:08;;;;;;;19.30;11.95;;;;;14.90;96020.00;;;;8216826;28;20199;-68
2023/05/16 14:58:12;;;;;;;15.52;10.38;;;;;14.90;96024.00;;;;8219298;28;20235;-67
2023/05/16 15:02:15;;;;;;;17.25;11.23;;;;;15.00;96022.00;;;;8213106;28;20757;-68
2023/05/16 15:06:27;;;;;;;15.95;10.60;;;;;15.10;96030.00;;;;8209602;28;20236;-69
2023/05/16 15:10:30;;;;;;;15.15;10.77;;;;;15.20;96018.00;;;;8211080;28;20616;-67
2023/05/16 15:14:40;;;;;;;13.90;10.50;;;;;15.30;96028.00;;;;8213580;28;20203;-68
2023/05/16 15:18:44;;;;;;;18.10;10.68;;;;;15.40;96022.00;;;;8216735;28;20593;-68
2023/05/16 15:22:53;;;;;;;12.10;8.88;;;;;15.60;96027.00;;;;8214856;28;20207;-67
2023/05/16 15:26:56;;;;;;;11.65;9.45;;;;;15.60;96035.00;;;;8217983;28;20204;-68
2023/05/16 15:31:00;;;;;;;13.77;8.50;;;;;15.50;96037.00;;;;8225757;28;20775;-68
2023/05/16 15:35:08;;;;;;;10.65;8.43;;;;;15.60;96034.00;;;;8221559;28;20888;-69
2023/05/16 15:39:12;;;;;;;7.65;6.82;;;;;15.80;96042.00;;;;8216465;28;20231;-68
2023/05/16 15:43:17;;;;;;;10.95;6.63;;;;;15.90;96043.00;;;;8219473;28;20207;-69
2023/05/16 15:47:20;;;;;;;8.02;7.07;;;;;16.00;96051.00;;;;8219158;28;20203;-70
2023/05/16 15:51:26;;;;;;;8.38;7.40;;;;;16.00;96039.00;;;;8221898;28;20823;-68
2023/05/16 15:55:31;;;;;;;9.90;6.20;;;;;16.10;96046.00;;;;8221198;28;20379;-69
2023/05/16 15:59:34;;;;;;;11.23;6.63;;;;;16.10;96053.00;;;;8221640;28;20667;-71
2023/05/16 16:03:43;;;;;;;6.85;5.38;;;;;15.90;96067.00;;;;8222036;28;20242;-68
2023/05/16 16:07:48;;;;;;;11.80;7.18;;;;;15.90;96067.00;;;;8217532;28;20204;-68
2023/05/16 16:11:55;;;;;;;6.28;4.55;;;;;16.00;96059.00;;;;8220371;28;20200;-69
2023/05/16 16:15:58;;;;;;;4.50;4.00;;;;;16.00;96073.00;;;;8220631;28;20649;-68
2023/05/16 16:20:06;;;;;;;4.53;4.10;;;;;15.80;96081.00;;;;8234332;28;20258;-68
2023/05/16 16:24:11;;;;;;;4.00;3.70;;;;;15.70;96087.00;;;;8214973;28;20729;-71
2023/05/16 16:28:16;;;;;;;8.80;3.97;;;;;15.60;96088.00;;;;8217995;28;20311;-67
2023/05/16 16:32:19;;;;;;;6.07;4.47;;;;;15.40;96088.00;;;;8219881;28;20242;-70
2023/05/16 16:36:23;;;;;;;6.35;4.90;;;;;15.50;96096.00;;;;8219493;28;20330;-69
2023/05/16 16:40:34;;;;;;;5.43;4.68;;;;;15.40;96095.00;;;;8222589;28;20242;-69
2023/05/16 16:44:39;;;;;;;14.60;4.93;;;;;15.50;96102.00;;;;8223903;28;20343;-69
2023/05/16 16:48:46;;;;;;;6.60;4.30;;;;;15.50;96116.00;;;;8217623;28;20572;-69
2023/05/16 16:52:53;;;;;;;6.78;4.68;;;;;15.50;96126.00;;;;8224137;28;20238;-68
2023/05/16 16:56:57;;;;;;;5.47;3.60;;;;;15.40;96119.00;;;;8219717;28;20231;-71
2023/05/16 17:01:03;;;;;;;4.88;4.35;;;;;15.30;96138.00;;;;8220731;28;20231;-71
2023/05/16 17:05:12;;;;;;;6.00;4.53;;;;;15.30;96143.00;;;;8219930;28;20245;-70
2023/05/16 17:09:18;;;;;;;5.15;4.15;;;;;15.20;96154.00;;;;8223308;28;20282;-71
2023/05/16 17:13:21;;;;;;;4.78;4.30;;;;;15.20;96157.00;;;;8219375;28;20214;-70
2023/05/16 17:17:26;;;;;;;6.10;4.60;;;;;15.10;96165.00;;;;8219194;28;20660;-71
2023/05/16 17:21:33;;;;;;;6.32;4.55;;;;;15.10;96168.00;;;;8222689;28;20589;-71
2023/05/16 17:25:38;;;;;;;9.75;5.43;;;;;14.90;96176.00;;;;8219145;28;20313;-71
2023/05/16 17:29:41;;;;;;;13.27;7.18;;;;;14.80;96186.00;;;;8212222;28;20208;-71
2023/05/16 17:33:45;;;;;;;7.05;4.78;;;;;14.70;96194.00;;;;8234428;28;20200;-71
2023/05/16 17:37:49;;;;;;;6.38;4.63;;;;;14.40;96179.00;;;;8219784;28;20206;-68
2023/05/16 17:41:56;;;;;;;6.07;4.60;;;;;14.30;96181.00;;;;8212006;28;20223;-69
2023/05/16 17:46:06;;;;;;;6.13;4.07;;;;;14.00;96194.00;;;;8220167;28;20834;-69
2023/05/16 17:50:11;;;;;;;4.20;3.80;;;;;13.80;96201.00;;;;8220200;28;20199;-72
2023/05/16 17:54:18;;;;;;;8.57;4.63;;;;;13.70;96185.00;;;;8220870;28;20205;-72
2023/05/16 17:58:23;;;;;;;4.00;3.45;;;;;13.50;96189.00;;;;8222125;28;20209;-71
2023/05/16 18:02:29;;;;;;;5.55;3.80;;;;;13.40;96183.00;;;;8220198;28;20251;-71
2023/05/16 18:06:37;;;;;;;6.47;4.50;;;;;13.30;96190.00;;;;8219287;28;20801;-68
2023/05/16 18:10:42;;;;;;;3.80;3.42;;;;;13.20;96189.00;;;;8213232;28;20649;-72
2023/05/16 18:14:52;;;;;;;5.18;4.10;;;;;13.10;96196.00;;;;8205544;28;20191;-71
2023/05/16 18:18:57;;;;;;;9.05;5.20;;;;;13.10;96202.00;;;;8217352;28;20297;-71
2023/05/16 18:23:02;;;;;;;3.80;3.10;;;;;13.10;96216.00;;;;8213481;28;20327;-72
2023/05/16 18:27:05;;;;;;;6.20;3.17;;;;;12.90;96211.00;;;;8210173;28;20283;-72
2023/05/16 18:31:09;;;;;;;3.45;3.15;;;;;12.80;96217.00;;;;8206494;28;20982;-71
2023/05/16 18:35:14;;;;;;;3.60;3.30;;;;;12.70;96216.00;;;;8214264;28;20297;-69
2023/05/16 18:39:21;;;;;;;4.60;3.45;;;;;12.60;96227.00;;;;8217596;28;20244;-69
2023/05/16 18:43:25;;;;;;;3.47;3.17;;;;;12.60;96244.00;;;;8214459;28;20717;-72
2023/05/16 18:47:30;;;;;;;4.10;3.72;;;;;12.50;96239.00;;;;8216885;28;20664;-70
2023/05/16 18:51:33;;;;;;;2.90;2.63;;;;;12.50;96244.00;;;;8219578;28;20212;-71
2023/05/16 18:55:38;;;;;;;2.58;2.28;;;;;12.40;96246.00;;;;8218565;28;20210;-71
2023/05/16 18:59:41;;;;;;;2.65;2.45;;;;;12.30;96254.00;;;;8215792;28;20239;-69
2023/05/16 19:03:45;;;;;;;2.55;2.35;;;;;12.30;96255.00;;;;8220587;28;20240;-72
2023/05/16 19:07:49;;;;;;;7.03;2.85;;;;;12.20;96254.00;;;;8224514;28;20217;-72
2023/05/16 19:11:53;;;;;;;4.03;2.70;;;;;12.10;96255.00;;;;8225914;28;20296;-72
2023/05/16 19:15:56;;;;;;;7.90;2.50;;;;;12.10;96251.00;;;;8220668;28;20214;-69
2023/05/16 19:20:07;;;;;;;5.80;2.60;;;;;12.00;96255.00;;;;8220679;28;20687;-71
2023/05/16 19:24:16;;;;;;;4.53;2.88;;;;;12.00;96249.00;;;;8223452;28;20294;-72
2023/05/16 19:28:21;;;;;;;6.68;2.72;;;;;11.90;96265.00;;;;8223921;28;20280;-73
2023/05/16 19:32:24;;;;;;;8.40;2.60;;;;;11.90;96267.00;;;;8223272;28;20246;-70
2023/05/16 19:36:28;;;;;;;5.82;2.60;;;;;11.80;96274.00;;;;8219469;28;20212;-73
2023/05/16 19:40:32;;;;;;;4.95;2.95;;;;;11.80;96277.00;;;;8212193;28;20235;-71
2023/05/16 19:44:37;;;;;;;4.95;3.00;;;;;11.70;96288.00;;;;8221425;28;20204;-71
2023/05/16 19:48:40;;;;;;;3.92;2.50;;;;;11.70;96286.00;;;;8216679;28;20653;-70
2023/05/16 19:52:47;;;;;;;7.35;3.30;;;;;11.70;96286.00;;;;8218640;28;20843;-68
2023/05/16 19:56:50;;;;;;;6.60;3.00;;;;;11.60;96305.00;;;;8220008;28;20693;-70
2023/05/16 20:00:57;;;;;;;3.33;2.50;;;;;11.60;96311.00;;;;8212851;28;20242;-70
2023/05/16 20:05:03;;;;;;;7.57;2.80;;;;;11.60;96307.00;;;;8215982;28;20207;-71
2023/05/16 20:09:07;;;;;;;5.03;2.80;;;;;11.50;96312.00;;;;8210039;28;20204;-71
2023/05/16 20:13:17;;;;;;;7.57;2.60;;;;;11.50;96319.00;;;;8215872;28;20215;-69